createdAt,value
2018-06-07T00:00:58.663Z,13.08
2018-06-07T00:03:26.841Z,11.33
2018-06-07T00:05:55.029Z,11.97
2018-06-07T00:08:23.196Z,15.03
2018-06-07T00:10:51.435Z,12.60
2018-06-07T00:13:19.606Z,9.95
2018-06-07T00:15:47.794Z,9.60
2018-06-07T00:18:16.025Z,9.83
2018-06-07T00:20:44.190Z,9.73
2018-06-07T00:23:12.400Z,13.30
2018-06-07T00:25:40.560Z,8.78
2018-06-07T00:28:08.754Z,10.53
2018-06-07T00:30:36.925Z,14.20
2018-06-07T00:33:05.222Z,13.70
2018-06-07T00:35:38.914Z,11.87
2018-06-07T00:38:07.081Z,10.05
2018-06-07T00:40:35.266Z,8.23
2018-06-07T00:43:03.435Z,9.90
2018-06-07T00:45:31.618Z,8.45
2018-06-07T00:47:59.801Z,7.33
2018-06-07T00:50:28.217Z,11.80
2018-06-07T00:52:56.375Z,9.13
2018-06-07T00:55:24.550Z,9.27
2018-06-07T00:57:52.730Z,11.70
2018-06-07T01:00:20.906Z,9.60
2018-06-07T01:02:49.080Z,12.05
2018-06-07T01:05:17.247Z,8.55
2018-06-07T01:07:45.427Z,11.30
2018-06-07T01:10:13.367Z,14.47
2018-06-07T01:12:41.538Z,8.95
2018-06-07T01:15:09.711Z,8.28
2018-06-07T01:17:37.990Z,8.00
2018-06-07T01:20:06.322Z,11.45
2018-06-07T01:22:34.481Z,9.63
2018-06-07T01:25:02.649Z,8.73
2018-06-07T01:27:36.341Z,10.13
2018-06-07T01:30:21.449Z,11.43
2018-06-07T01:33:06.533Z,11.60
2018-06-07T01:35:34.449Z,11.47
2018-06-07T01:38:14.190Z,10.13
2018-06-07T01:40:42.342Z,8.10
2018-06-07T01:43:10.513Z,8.20
2018-06-07T01:45:38.670Z,8.25
2018-06-07T01:48:06.872Z,9.35
2018-06-07T01:50:34.993Z,9.20
2018-06-07T01:53:03.154Z,8.73
2018-06-07T01:55:31.381Z,9.53
2018-06-07T01:57:59.557Z,9.23
2018-06-07T02:00:27.725Z,9.25
2018-06-07T02:02:55.946Z,8.18
2018-06-07T02:05:24.114Z,8.80
2018-06-07T02:07:52.264Z,8.88
2018-06-07T02:10:20.456Z,12.05
2018-06-07T02:12:48.654Z,10.50
2018-06-07T02:15:16.849Z,13.25
2018-06-07T02:17:45.014Z,9.83
2018-06-07T02:20:13.197Z,9.80
2018-06-07T02:22:41.361Z,11.93
2018-06-07T02:25:09.541Z,14.78
2018-06-07T02:27:37.689Z,12.80
2018-06-07T02:30:05.874Z,9.00
2018-06-07T02:32:34.099Z,10.53
2018-06-07T02:35:02.262Z,12.43
2018-06-07T02:37:30.428Z,10.58
2018-06-07T02:39:58.615Z,11.73
2018-06-07T02:42:26.765Z,8.40
2018-06-07T02:44:54.964Z,8.20
2018-06-07T02:47:23.137Z,10.47
2018-06-07T02:49:51.369Z,12.15
2018-06-07T02:52:19.545Z,8.98
2018-06-07T02:54:47.724Z,11.08
2018-06-07T02:57:15.893Z,9.20
2018-06-07T02:59:44.089Z,10.03
2018-06-07T03:02:12.418Z,10.85
2018-06-07T03:04:40.584Z,9.93
2018-06-07T03:07:08.751Z,10.63
2018-06-07T03:09:36.954Z,9.83
2018-06-07T03:12:05.164Z,9.80
2018-06-07T03:14:33.321Z,8.68
2018-06-07T03:17:01.501Z,10.43
2018-06-07T03:19:29.654Z,10.50
2018-06-07T03:21:57.847Z,11.10
2018-06-07T03:24:26.039Z,13.78
2018-06-07T03:26:54.224Z,14.53
2018-06-07T03:29:22.388Z,14.90
2018-06-07T03:31:50.598Z,15.20
2018-06-07T03:34:18.757Z,12.28
2018-06-07T03:36:46.945Z,11.95
2018-06-07T03:39:15.112Z,13.45
2018-06-07T03:41:43.277Z,16.50
2018-06-07T03:44:11.462Z,11.60
2018-06-07T03:46:39.673Z,10.13
2018-06-07T03:49:07.844Z,14.30
2018-06-07T03:51:36.042Z,13.55
2018-06-07T03:54:04.230Z,18.17
2018-06-07T03:56:32.410Z,14.30
2018-06-07T03:59:00.589Z,13.18
2018-06-07T04:01:28.770Z,14.80
2018-06-07T04:03:56.942Z,19.90
2018-06-07T04:06:25.142Z,17.55
2018-06-07T04:08:53.329Z,15.72
2018-06-07T04:11:21.510Z,13.35
2018-06-07T04:13:49.701Z,15.35
2018-06-07T04:16:17.878Z,13.37
2018-06-07T04:18:46.040Z,14.98
2018-06-07T04:21:14.233Z,14.83
2018-06-07T04:23:42.420Z,11.65
2018-06-07T04:26:10.698Z,12.18
2018-06-07T04:28:38.852Z,13.85
2018-06-07T04:31:07.093Z,14.13
2018-06-07T04:33:35.261Z,17.00
2018-06-07T04:36:03.435Z,15.63
2018-06-07T04:38:31.649Z,15.60
2018-06-07T04:40:59.846Z,22.95
2018-06-07T04:43:28.037Z,20.45
2018-06-07T04:45:56.196Z,19.53
2018-06-07T04:48:24.428Z,22.15
2018-06-07T04:50:53.421Z,22.82
2018-06-07T04:53:21.605Z,27.60
2018-06-07T04:55:49.761Z,27.87
2018-06-07T04:58:17.987Z,26.50
2018-06-07T05:00:46.176Z,26.93
2018-06-07T05:03:14.374Z,30.65
2018-06-07T05:05:42.564Z,26.75
2018-06-07T05:08:10.736Z,33.23
2018-06-07T05:10:38.910Z,30.60
2018-06-07T05:13:07.096Z,28.12
2018-06-07T05:15:35.262Z,26.35
2018-06-07T05:18:03.458Z,31.40
2018-06-07T05:20:31.625Z,32.90
2018-06-07T05:22:59.806Z,29.60
2018-06-07T05:25:27.982Z,31.45
2018-06-07T05:27:56.152Z,33.73
2018-06-07T05:30:24.360Z,32.13
2018-06-07T05:32:52.547Z,27.58
2018-06-07T05:35:20.722Z,26.55
2018-06-07T05:37:48.901Z,32.05
2018-06-07T05:40:17.069Z,36.05
2018-06-07T05:42:45.269Z,34.80
2018-06-07T05:45:13.437Z,40.12
2018-06-07T05:47:41.599Z,41.10
2018-06-07T05:50:09.747Z,37.80
2018-06-07T05:52:37.913Z,35.73
2018-06-07T05:55:06.162Z,35.58
2018-06-07T05:57:34.396Z,37.25
2018-06-07T06:00:02.469Z,38.23
2018-06-07T06:02:30.624Z,38.35
2018-06-07T06:04:58.787Z,36.15
2018-06-07T06:07:26.937Z,39.63
2018-06-07T06:09:55.141Z,34.07
2018-06-07T06:12:23.235Z,34.75
2018-06-07T06:14:51.406Z,31.68
2018-06-07T06:17:19.552Z,31.55
2018-06-07T06:19:47.712Z,31.17
2018-06-07T06:22:15.873Z,28.05
2018-06-07T06:24:44.041Z,36.15
2018-06-07T06:27:12.184Z,31.80
2018-06-07T06:29:40.345Z,29.92
2018-06-07T06:32:08.518Z,31.97
2018-06-07T06:34:36.694Z,37.58
2018-06-07T06:37:04.865Z,29.92
2018-06-07T06:39:33.012Z,31.03
2018-06-07T06:42:01.231Z,33.75
2018-06-07T06:44:29.406Z,30.65
2018-06-07T06:46:57.553Z,33.63
2018-06-07T06:49:25.788Z,35.37
2018-06-07T06:51:53.911Z,33.00
2018-06-07T06:54:22.088Z,31.30
2018-06-07T06:56:50.296Z,29.82
2018-06-07T06:59:18.465Z,30.10
2018-06-07T07:01:46.642Z,27.17
2018-06-07T07:04:14.837Z,26.50
2018-06-07T07:06:42.998Z,30.50
2018-06-07T07:09:11.293Z,27.27
2018-06-07T07:11:39.410Z,26.87
2018-06-07T07:14:07.566Z,25.27
2018-06-07T07:16:35.758Z,31.48
2018-06-07T07:19:03.924Z,27.60
2018-06-07T07:21:32.106Z,24.23
2018-06-07T07:24:00.265Z,23.27
2018-06-07T07:26:28.457Z,26.75
2018-06-07T07:28:56.634Z,26.57
2018-06-07T07:31:25.160Z,26.73
2018-06-07T07:33:53.330Z,21.93
2018-06-07T07:36:21.513Z,20.80
2018-06-07T07:38:49.689Z,24.55
2018-06-07T07:41:17.884Z,21.97
2018-06-07T07:43:46.048Z,19.17
2018-06-07T07:46:14.248Z,19.15
2018-06-07T07:48:42.426Z,24.00
2018-06-07T07:51:10.628Z,20.05
2018-06-07T07:53:38.544Z,18.95
2018-06-07T07:56:06.709Z,20.85
2018-06-07T07:58:34.945Z,19.25
2018-06-07T08:01:03.132Z,18.90
2018-06-07T08:03:31.065Z,23.17
2018-06-07T08:05:59.237Z,22.10
2018-06-07T08:08:27.432Z,19.12
2018-06-07T08:10:55.602Z,20.10
2018-06-07T08:13:23.799Z,18.37
2018-06-07T08:15:51.979Z,21.42
2018-06-07T08:18:20.153Z,26.17
2018-06-07T08:20:48.325Z,22.43
2018-06-07T08:23:16.514Z,22.00
2018-06-07T08:25:44.689Z,22.17
2018-06-07T08:28:12.853Z,23.62
2018-06-07T08:30:41.046Z,19.23
2018-06-07T08:33:09.234Z,21.87
2018-06-07T08:35:37.413Z,21.75
2018-06-07T08:38:05.587Z,19.92
2018-06-07T08:40:33.770Z,22.93
2018-06-07T08:43:01.930Z,22.00
2018-06-07T08:45:30.133Z,25.72
2018-06-07T08:47:58.308Z,22.40
2018-06-07T08:50:26.503Z,24.60
2018-06-07T08:52:54.683Z,23.50
2018-06-07T08:55:23.488Z,22.25
2018-06-07T08:57:51.658Z,20.23
2018-06-07T09:00:19.931Z,19.92
2018-06-07T09:02:48.005Z,20.35
2018-06-07T09:05:16.257Z,24.67
2018-06-07T09:07:44.414Z,21.45
2018-06-07T09:10:12.597Z,19.85
2018-06-07T09:12:40.790Z,19.48
2018-06-07T09:15:08.966Z,21.85
2018-06-07T09:17:37.129Z,21.62
2018-06-07T09:20:05.326Z,20.60
2018-06-07T09:22:33.492Z,18.25
2018-06-07T09:25:01.675Z,26.07
2018-06-07T09:27:29.833Z,23.83
2018-06-07T09:29:58.030Z,21.85
2018-06-07T09:32:26.193Z,20.48
2018-06-07T09:34:54.406Z,21.97
2018-06-07T09:37:22.564Z,28.52
2018-06-07T09:39:50.760Z,21.97
2018-06-07T09:42:18.935Z,20.00
2018-06-07T09:44:47.116Z,19.40
2018-06-07T09:47:15.294Z,22.45
2018-06-07T09:49:43.489Z,22.50
2018-06-07T09:52:11.641Z,20.72
2018-06-07T09:54:39.826Z,19.60
2018-06-07T09:57:07.977Z,18.40
2018-06-07T09:59:36.186Z,26.30
2018-06-07T10:02:04.343Z,20.65
2018-06-07T10:04:32.510Z,19.00
2018-06-07T10:07:00.681Z,16.30
2018-06-07T10:09:28.862Z,23.60
2018-06-07T10:11:57.015Z,19.37
2018-06-07T10:14:25.197Z,20.43
2018-06-07T10:16:53.399Z,22.52
2018-06-07T10:19:21.542Z,17.85
2018-06-07T10:21:49.694Z,21.57
2018-06-07T10:24:17.833Z,22.55
2018-06-07T10:26:46.001Z,17.80
2018-06-07T10:29:14.150Z,18.32
2018-06-07T10:31:42.310Z,22.17
2018-06-07T10:34:10.481Z,19.75
2018-06-07T10:36:38.628Z,18.65
2018-06-07T10:39:07.842Z,17.13
2018-06-07T10:41:36.029Z,17.75
2018-06-07T10:44:04.200Z,14.50
2018-06-07T10:46:32.361Z,18.13
2018-06-07T10:49:00.524Z,18.60
2018-06-07T10:51:28.689Z,16.27
2018-06-07T10:53:56.837Z,21.50
2018-06-07T10:56:25.004Z,16.75
2018-06-07T10:58:53.198Z,17.30
2018-06-07T11:01:21.317Z,15.98
2018-06-07T11:03:49.473Z,14.60
2018-06-07T11:06:17.389Z,16.67
2018-06-07T11:08:45.546Z,13.97
2018-06-07T11:11:13.702Z,14.57
2018-06-07T11:13:41.841Z,18.53
2018-06-07T11:16:09.985Z,14.93
2018-06-07T11:18:38.133Z,17.10
2018-06-07T11:21:06.286Z,18.20
2018-06-07T11:23:34.433Z,14.43
2018-06-07T11:26:02.613Z,15.80
2018-06-07T11:28:30.752Z,14.97
2018-06-07T11:30:58.917Z,25.67
2018-06-07T11:33:27.068Z,12.07
2018-06-07T11:35:55.231Z,15.47
2018-06-07T11:38:23.382Z,17.60
2018-06-07T11:40:51.579Z,17.60
2018-06-07T11:43:19.702Z,22.97
2018-06-07T11:45:47.878Z,17.23
2018-06-07T11:48:16.036Z,20.87
2018-06-07T11:50:44.190Z,23.77
2018-06-07T11:53:12.350Z,19.00
2018-06-07T11:55:40.498Z,17.13
2018-06-07T11:58:08.655Z,17.30
2018-06-07T12:00:36.801Z,15.53
2018-06-07T12:03:04.967Z,12.33
2018-06-07T12:05:33.123Z,23.00
2018-06-07T12:08:01.293Z,15.93
2018-06-07T12:10:29.446Z,13.60
2018-06-07T12:12:57.607Z,10.73
2018-06-07T12:15:25.752Z,14.73
2018-06-07T12:17:53.906Z,13.13
2018-06-07T12:20:22.040Z,11.03
2018-06-07T12:22:50.200Z,14.27
2018-06-07T12:25:18.381Z,11.27
2018-06-07T12:27:46.248Z,14.67
2018-06-07T12:30:14.409Z,14.17
2018-06-07T12:32:42.558Z,9.57
2018-06-07T12:35:10.706Z,9.93
2018-06-07T12:37:39.207Z,10.00
2018-06-07T12:40:07.383Z,8.97
2018-06-07T12:42:35.502Z,10.10
2018-06-07T12:45:03.637Z,9.27
2018-06-07T12:47:31.819Z,14.57
2018-06-07T12:50:00.008Z,11.13
2018-06-07T12:52:28.186Z,11.60
2018-06-07T12:54:56.347Z,12.40
2018-06-07T12:57:24.533Z,11.00
2018-06-07T12:59:52.688Z,12.30
2018-06-07T13:02:20.825Z,9.00
2018-06-07T13:04:48.976Z,8.73
2018-06-07T13:07:17.130Z,8.77
2018-06-07T13:09:45.298Z,10.40
2018-06-07T13:12:13.449Z,11.10
2018-06-07T13:14:41.584Z,10.80
2018-06-07T13:17:09.743Z,10.83
2018-06-07T13:19:37.893Z,10.67
2018-06-07T13:22:06.030Z,9.60
2018-06-07T13:24:34.170Z,10.93
2018-06-07T13:27:02.334Z,11.13
2018-06-07T13:29:30.499Z,8.93
2018-06-07T13:31:58.645Z,11.17
2018-06-07T13:34:26.802Z,9.67
2018-06-07T13:36:54.954Z,15.70
2018-06-07T13:39:23.106Z,10.00
2018-06-07T13:41:51.248Z,12.90
2018-06-07T13:44:19.406Z,15.17
2018-06-07T13:46:47.545Z,9.53
2018-06-07T13:49:15.714Z,11.50
2018-06-07T13:51:43.862Z,7.93
2018-06-07T13:54:12.026Z,10.63
2018-06-07T13:56:40.178Z,8.00
2018-06-07T13:59:08.326Z,8.40
2018-06-07T14:01:36.471Z,13.30
2018-06-07T14:04:04.622Z,7.23
2018-06-07T14:06:32.773Z,11.00
2018-06-07T14:09:00.926Z,7.90
2018-06-07T14:11:29.078Z,8.47
2018-06-07T14:13:57.228Z,9.30
2018-06-07T14:16:25.382Z,8.93
2018-06-07T14:18:53.538Z,7.83
2018-06-07T14:21:21.682Z,9.47
2018-06-07T14:23:49.846Z,8.13
2018-06-07T14:26:17.989Z,7.97
2018-06-07T14:28:46.149Z,8.20
2018-06-07T14:31:14.293Z,11.20
2018-06-07T14:33:42.450Z,14.63
2018-06-07T14:36:10.589Z,7.90
2018-06-07T14:38:38.751Z,7.17
2018-06-07T14:41:06.896Z,6.70
2018-06-07T14:43:35.075Z,12.80
2018-06-07T14:46:03.217Z,9.13
2018-06-07T14:48:31.404Z,8.13
2018-06-07T14:50:59.586Z,7.50
2018-06-07T14:53:28.542Z,8.13
2018-06-07T14:55:56.693Z,10.20
2018-06-07T14:58:24.845Z,8.07
2018-06-07T15:00:53.002Z,7.67
2018-06-07T15:03:21.181Z,9.93
2018-06-07T15:05:49.382Z,7.53
2018-06-07T15:08:17.557Z,7.13
2018-06-07T15:10:45.725Z,9.87
2018-06-07T15:13:13.896Z,6.87
2018-06-07T15:15:42.057Z,8.10
2018-06-07T15:18:10.229Z,11.23
2018-06-07T15:23:28.896Z,7.10
2018-06-07T15:25:57.067Z,7.07
2018-06-07T15:28:25.234Z,11.00
2018-06-07T15:30:53.402Z,7.60
2018-06-07T15:33:21.606Z,9.23
2018-06-07T15:35:49.718Z,26.10
2018-06-07T15:38:17.874Z,8.43
2018-06-07T15:40:46.074Z,9.93
2018-06-07T15:43:14.243Z,12.90
2018-06-07T15:45:42.406Z,8.80
2018-06-07T15:48:10.591Z,12.37
2018-06-07T15:50:38.771Z,11.00
2018-06-07T15:53:06.984Z,9.80
2018-06-07T15:55:35.163Z,11.20
2018-06-07T15:58:03.327Z,14.90
2018-06-07T16:00:31.499Z,8.50
2018-06-07T16:02:59.664Z,9.60
2018-06-07T16:05:27.830Z,19.73
2018-06-07T16:07:55.987Z,20.77
2018-06-07T16:10:24.166Z,10.43
2018-06-07T16:12:52.322Z,9.57
2018-06-07T16:15:20.486Z,10.20
2018-06-07T16:17:48.650Z,20.93
2018-06-07T16:20:16.830Z,8.63
2018-06-07T16:22:44.990Z,9.77
2018-06-07T16:25:13.157Z,9.50
2018-06-07T16:27:41.314Z,8.50
2018-06-07T16:30:09.481Z,11.10
2018-06-07T16:32:37.652Z,16.13
2018-06-07T16:37:33.310Z,13.73
2018-06-07T16:40:01.491Z,15.23
2018-06-07T16:42:29.670Z,12.45
2018-06-07T16:44:57.858Z,16.48
2018-06-07T16:47:26.059Z,16.23
2018-06-07T16:49:54.242Z,15.23
2018-06-07T16:52:22.422Z,21.02
2018-06-07T16:54:50.590Z,10.98
2018-06-07T16:57:18.780Z,9.90
2018-06-07T16:59:46.933Z,9.90
2018-06-07T17:02:15.107Z,10.90
2018-06-07T17:04:43.281Z,13.05
2018-06-07T17:07:11.480Z,12.63
2018-06-07T17:09:39.643Z,9.55
2018-06-07T17:12:07.927Z,7.80
2018-06-07T17:14:36.090Z,8.80
2018-06-07T17:17:04.351Z,7.78
2018-06-07T17:19:32.536Z,8.28
2018-06-07T17:22:00.719Z,11.03
2018-06-07T17:24:28.930Z,8.60
2018-06-07T17:26:57.110Z,11.68
2018-06-07T17:29:25.272Z,9.40
2018-06-07T17:31:53.442Z,12.47
2018-06-07T17:34:21.617Z,9.38
2018-06-07T17:36:49.777Z,9.40
2018-06-07T17:39:17.933Z,10.10
2018-06-07T17:41:46.113Z,9.75
2018-06-07T17:44:14.265Z,8.70
2018-06-07T17:46:42.430Z,11.15
2018-06-07T17:49:10.601Z,7.80
2018-06-07T17:51:38.773Z,7.72
2018-06-07T17:54:06.954Z,7.45
2018-06-07T17:56:35.139Z,9.30
2018-06-07T17:59:03.318Z,7.83
2018-06-07T18:01:31.497Z,8.00
2018-06-07T18:03:59.652Z,10.10
2018-06-07T18:06:27.817Z,8.30
2018-06-07T18:08:55.990Z,11.78
2018-06-07T18:11:24.177Z,8.20
2018-06-07T18:13:52.343Z,10.27
2018-06-07T18:16:20.505Z,8.50
2018-06-07T18:18:48.691Z,10.95
2018-06-07T18:21:16.871Z,9.40
2018-06-07T18:23:45.035Z,9.70
2018-06-07T18:26:13.263Z,8.43
2018-06-07T18:28:41.399Z,8.58
2018-06-07T18:31:09.578Z,9.08
2018-06-07T18:33:37.730Z,9.28
2018-06-07T18:36:05.915Z,15.08
2018-06-07T18:38:34.065Z,8.03
2018-06-07T18:41:02.229Z,7.67
2018-06-07T18:43:30.391Z,9.48
2018-06-07T18:45:58.574Z,9.53
2018-06-07T18:48:26.749Z,12.25
2018-06-07T18:50:54.914Z,11.13
2018-06-07T18:53:23.090Z,10.82
2018-06-07T18:55:51.291Z,13.38
2018-06-07T18:58:19.449Z,11.30
2018-06-07T19:00:47.601Z,17.47
2018-06-07T19:03:15.786Z,15.23
2018-06-07T19:05:43.954Z,11.60
2018-06-07T19:08:12.162Z,11.78
2018-06-07T19:10:40.338Z,12.58
2018-06-07T19:13:14.036Z,15.70
2018-06-07T19:15:42.230Z,15.60
2018-06-07T19:18:10.397Z,29.27
2018-06-07T19:20:44.102Z,11.83
2018-06-07T19:23:12.286Z,11.20
2018-06-07T19:25:45.887Z,14.18
2018-06-07T19:28:14.078Z,14.13
2018-06-07T19:30:42.271Z,17.25
2018-06-07T19:33:15.938Z,20.65
2018-06-07T19:35:44.110Z,17.67
2018-06-07T19:38:12.285Z,18.43
2018-06-07T19:40:45.793Z,15.95
2018-06-07T19:43:13.957Z,14.70
2018-06-07T19:45:42.141Z,12.88
2018-06-07T19:48:10.322Z,14.40
2018-06-07T19:50:38.477Z,15.00
2018-06-07T19:53:06.650Z,13.93
2018-06-07T19:55:34.838Z,14.10
2018-06-07T19:58:03.018Z,16.20
2018-06-07T20:00:31.197Z,11.87
2018-06-07T20:02:59.377Z,13.98
2018-06-07T20:05:27.854Z,12.15
2018-06-07T20:07:56.018Z,10.88
2018-06-07T20:10:24.193Z,10.82
2018-06-07T20:12:52.353Z,14.93
2018-06-07T20:15:20.522Z,12.40
2018-06-07T20:17:48.730Z,12.85
2018-06-07T20:20:16.929Z,16.97
2018-06-07T20:22:44.883Z,13.22
2018-06-07T20:25:13.060Z,11.68
2018-06-07T20:27:41.242Z,13.50
2018-06-07T20:30:09.442Z,15.10
2018-06-07T20:32:37.603Z,19.05
2018-06-07T20:35:05.938Z,12.23
2018-06-07T20:37:34.090Z,18.00
2018-06-07T20:40:02.286Z,18.75
2018-06-07T20:42:30.473Z,14.03
2018-06-07T20:44:58.642Z,12.40
2018-06-07T20:47:26.802Z,15.30
2018-06-07T20:49:54.998Z,13.93
2018-06-07T20:52:23.178Z,13.43
2018-06-07T20:54:51.350Z,15.65
2018-06-07T20:57:19.521Z,12.53
2018-06-07T20:59:48.969Z,11.65
2018-06-07T21:02:17.141Z,13.03
2018-06-07T21:04:45.314Z,11.30
2018-06-07T21:07:13.509Z,13.70
2018-06-07T21:09:41.682Z,13.28
2018-06-07T21:12:09.853Z,15.83
2018-06-07T21:14:38.017Z,17.02
2018-06-07T21:17:06.203Z,13.05
2018-06-07T21:19:34.382Z,14.20
2018-06-07T21:22:02.537Z,12.90
2018-06-07T21:24:30.713Z,16.37
2018-06-07T21:26:58.952Z,14.23
2018-06-07T21:29:27.080Z,13.72
2018-06-07T21:31:55.249Z,12.95
2018-06-07T21:34:23.410Z,11.78
2018-06-07T21:36:51.590Z,12.73
2018-06-07T21:39:19.749Z,13.20
2018-06-07T21:41:47.949Z,11.90
2018-06-07T21:44:16.114Z,11.95
2018-06-07T21:46:44.309Z,12.03
2018-06-07T21:49:12.457Z,13.53
2018-06-07T21:51:40.637Z,11.18
2018-06-07T21:54:08.879Z,12.40
2018-06-07T21:56:37.005Z,13.15
2018-06-07T21:59:04.925Z,13.30
2018-06-07T22:01:33.123Z,17.30
2018-06-07T22:04:01.284Z,16.70
2018-06-07T22:06:29.462Z,17.43
2018-06-07T22:08:57.632Z,17.82
2018-06-07T22:11:25.819Z,19.82
2018-06-07T22:13:53.998Z,20.32
2018-06-07T22:16:22.162Z,21.00
2018-06-07T22:18:50.393Z,25.20
2018-06-07T22:21:18.549Z,22.70
2018-06-07T22:23:46.729Z,22.82
2018-06-07T22:26:14.893Z,22.30
2018-06-07T22:28:43.069Z,23.83
2018-06-07T22:31:11.236Z,22.50
2018-06-07T22:33:39.414Z,27.02
2018-06-07T22:36:07.582Z,23.10
2018-06-07T22:38:35.762Z,20.97
2018-06-07T22:41:04.002Z,26.53
2018-06-07T22:43:32.170Z,20.80
2018-06-07T22:46:00.358Z,20.45
2018-06-07T22:48:28.546Z,22.65
2018-06-07T22:50:56.721Z,16.05
2018-06-07T22:53:24.896Z,19.00
2018-06-07T22:55:53.057Z,20.35
2018-06-07T22:58:21.270Z,19.92
2018-06-07T23:00:49.446Z,17.40
2018-06-07T23:03:17.610Z,18.15
2018-06-07T23:05:45.789Z,20.33
2018-06-07T23:08:14.038Z,18.27
2018-06-07T23:10:42.222Z,19.12
2018-06-07T23:13:10.382Z,16.23
2018-06-07T23:15:38.557Z,15.60
2018-06-07T23:18:06.727Z,15.13
2018-06-07T23:20:34.905Z,15.65
2018-06-07T23:23:03.086Z,15.80
2018-06-07T23:25:31.242Z,16.37
2018-06-07T23:27:59.402Z,16.82
2018-06-07T23:30:27.586Z,14.70
2018-06-07T23:32:55.762Z,14.00
2018-06-07T23:35:23.935Z,14.95
2018-06-07T23:37:52.093Z,13.38
2018-06-07T23:40:20.270Z,13.70
2018-06-07T23:42:48.450Z,14.03
2018-06-07T23:45:16.610Z,17.10
2018-06-07T23:47:44.781Z,13.55
2018-06-07T23:50:12.966Z,13.03
2018-06-07T23:52:41.162Z,13.15
2018-06-07T23:55:09.322Z,13.18
2018-06-07T23:57:37.497Z,21.80
